Time;durP1;ratioP1;P1;durP2;ratioP2;P2;SDS_P1;SDS_P2;PMS_P1;PMS_P2;Temp;Humidity;BMP_temperature;BMP_pressure;BME280_temperature;BME280_humidity;BME280_pressure;Samples;Min_cycle;Max_cycle;Signal;HPM_P1;HPM_P2
2023/11/22 00:00:59;;;;;;;2.60;2.40;;;;;;;18.21;53.01;97830.78;104701;1268;72638;-50
2023/11/22 00:03:26;;;;;;;2.70;2.40;;;;;;;18.22;52.99;97836.08;104524;1273;61483;-51
2023/11/22 00:05:53;;;;;;;3.10;2.70;;;;;;;18.21;53.01;97843.33;104532;1268;61324;-50
2023/11/22 00:08:20;;;;;;;3.60;2.30;;;;;;;18.20;52.98;97849.59;104496;1268;74599;-51
2023/11/22 00:10:46;;;;;;;3.40;2.60;;;;;;;18.20;52.96;97852.59;104499;1273;65419;-51
2023/11/22 00:13:14;;;;;;;3.90;2.60;;;;;;;18.20;53.02;97853.67;104570;1268;72724;-50
2023/11/22 00:15:40;;;;;;;3.00;2.40;;;;;;;18.20;52.93;97858.23;104546;1274;61387;-51
2023/11/22 00:18:07;;;;;;;2.40;2.20;;;;;;;18.20;52.93;97858.88;104691;1268;61297;-51
2023/11/22 00:20:34;;;;;;;3.20;2.50;;;;;;;18.19;52.92;97858.15;104785;1272;74613;-52
2023/11/22 00:23:03;;;;;;;2.40;2.20;;;;;;;18.20;53.02;97857.15;104676;1273;65458;-51
2023/11/22 00:25:30;;;;;;;2.50;2.30;;;;;;;18.19;52.96;97864.34;104534;1268;72426;-52
2023/11/22 00:27:56;;;;;;;2.30;2.10;;;;;;;18.19;52.96;97869.22;104486;1272;61391;-51
2023/11/22 00:30:23;;;;;;;3.70;2.40;;;;;;;18.19;52.96;97873.77;104505;1268;61579;-52
2023/11/22 00:32:51;;;;;;;2.40;2.20;;;;;;;18.19;53.02;97873.16;104537;1272;74100;-52
2023/11/22 00:35:18;;;;;;;3.70;2.80;;;;;;;18.19;52.94;97867.81;104655;1273;63965;-52
2023/11/22 00:37:46;;;;;;;2.60;2.40;;;;;;;18.19;53.07;97871.14;104626;1268;72438;-51
2023/11/22 00:40:13;;;;;;;2.90;2.60;;;;;;;18.18;52.98;97878.41;104484;1273;61377;-51
2023/11/22 00:42:41;;;;;;;2.60;2.40;;;;;;;18.18;52.96;97876.09;104681;1267;61233;-52
2023/11/22 00:45:09;;;;;;;2.50;2.30;;;;;;;18.18;53.00;97874.91;104863;1268;73493;-51
2023/11/22 00:47:37;;;;;;;2.40;2.20;;;;;;;18.18;53.04;97876.15;104647;1273;65503;-51
2023/11/22 00:50:04;;;;;;;2.70;2.50;;;;;;;18.18;53.02;97879.33;104603;1268;71523;-51
2023/11/22 00:52:31;;;;;;;3.30;2.70;;;;;;;18.18;52.96;97879.17;104680;1273;61207;-51
2023/11/22 00:54:58;;;;;;;3.40;2.40;;;;;;;18.18;52.93;97876.77;104566;1268;61293;-51
2023/11/22 00:57:26;;;;;;;3.40;2.30;;;;;;;18.18;52.92;97878.32;104425;1268;74600;-51
2023/11/22 00:59:53;;;;;;;3.80;2.60;;;;;;;18.17;52.92;97878.84;104472;1273;65714;-50
2023/11/22 01:02:20;;;;;;;2.60;2.40;;;;;;;18.17;52.90;97877.06;104578;1268;72452;-51
2023/11/22 01:04:48;;;;;;;2.60;2.40;;;;;;;18.17;52.98;97868.29;104475;1274;62862;-50
2023/11/22 01:07:15;;;;;;;3.00;2.50;;;;;;;18.17;52.97;97871.33;104366;1268;61374;-52
2023/11/22 01:09:42;;;;;;;2.40;2.20;;;;;;;18.17;53.00;97872.63;104566;1270;74635;-50
2023/11/22 01:12:11;;;;;;;2.50;2.30;;;;;;;18.17;52.94;97873.88;104548;1273;65491;-49
2023/11/22 01:14:39;;;;;;;3.20;2.40;;;;;;;18.17;52.94;97876.11;104496;1268;73217;-49
2023/11/22 01:17:05;;;;;;;2.60;2.40;;;;;;;18.16;52.98;97877.65;104540;1272;61294;-51
2023/11/22 01:19:32;;;;;;;2.50;2.30;;;;;;;18.16;52.86;97878.52;104546;1268;61181;-51
2023/11/22 01:21:58;;;;;;;2.70;2.50;;;;;;;18.16;52.95;97878.42;104576;1273;61392;-51
2023/11/22 01:24:27;;;;;;;2.40;2.20;;;;;;;18.16;52.90;97881.05;104729;1273;65228;-51
2023/11/22 01:26:55;;;;;;;2.70;2.30;;;;;;;18.16;52.92;97883.91;104670;1268;72576;-50
2023/11/22 01:29:21;;;;;;;2.40;2.20;;;;;;;18.15;52.88;97884.52;104518;1273;61286;-50
2023/11/22 01:31:49;;;;;;;2.50;2.30;;;;;;;18.15;52.88;97889.78;104608;1268;61322;-50
2023/11/22 01:34:16;;;;;;;2.70;2.20;;;;;;;18.15;52.86;97881.11;104678;1273;74484;-50
2023/11/22 01:36:43;;;;;;;2.50;2.30;;;;;;;18.15;52.84;97882.75;104683;1273;64914;-50
2023/11/22 01:39:13;;;;;;;2.40;2.10;;;;;;;18.15;52.85;97883.41;104688;1268;72628;-50
2023/11/22 01:41:41;;;;;;;2.70;2.50;;;;;;;18.14;52.86;97883.30;104675;1269;61285;-50
2023/11/22 01:44:08;;;;;;;2.60;2.40;;;;;;;18.15;52.93;97889.76;104818;1268;61341;-50
2023/11/22 01:46:35;;;;;;;2.60;2.40;;;;;;;18.14;52.87;97894.38;104807;1273;74429;-50
2023/11/22 01:49:02;;;;;;;2.60;2.40;;;;;;;18.14;52.84;97901.81;104478;1273;64154;-50
2023/11/22 01:51:29;;;;;;;2.60;2.40;;;;;;;18.14;52.92;97905.77;104448;1268;72507;-50
2023/11/22 01:53:57;;;;;;;2.60;2.40;;;;;;;18.14;52.93;97912.60;104528;1274;61270;-52
2023/11/22 01:56:24;;;;;;;2.70;2.50;;;;;;;18.14;52.87;97912.05;104634;1268;61304;-50
2023/11/22 01:58:51;;;;;;;2.40;2.20;;;;;;;18.14;52.85;97916.45;104475;1276;74719;-50
2023/11/22 02:01:18;;;;;;;2.90;2.20;;;;;;;18.14;52.85;97914.21;104645;1274;65574;-50
2023/11/22 02:03:45;;;;;;;2.40;2.20;;;;;;;18.14;52.90;97916.91;104476;1268;72646;-50
2023/11/22 02:06:12;;;;;;;2.90;2.30;;;;;;;18.14;52.79;97917.06;104539;1274;61256;-50
2023/11/22 02:08:39;;;;;;;2.20;2.00;;;;;;;18.14;52.78;97920.00;104496;1274;61360;-50
2023/11/22 02:11:05;;;;;;;2.40;2.20;;;;;;;18.13;52.78;97917.69;104654;1273;74448;-52
2023/11/22 02:13:32;;;;;;;2.30;2.10;;;;;;;18.13;52.81;97920.77;104470;1273;65346;-51
2023/11/22 02:16:01;;;;;;;2.60;2.40;;;;;;;18.13;52.81;97923.55;104706;1268;72646;-50
2023/11/22 02:18:29;;;;;;;2.80;2.50;;;;;;;18.14;52.91;97923.10;104429;1273;61437;-50
2023/11/22 02:20:56;;;;;;;2.30;2.10;;;;;;;18.13;52.87;97923.17;104438;1268;61272;-50
2023/11/22 02:23:23;;;;;;;2.90;2.60;;;;;;;18.13;52.88;97928.98;104454;1268;74646;-50
2023/11/22 02:25:52;;;;;;;2.60;2.40;;;;;;;18.13;52.78;97931.91;104507;1273;64259;-51
2023/11/22 02:28:18;;;;;;;3.20;2.20;;;;;;;18.12;52.90;97926.31;104537;1268;61326;-50
2023/11/22 02:30:45;;;;;;;2.80;2.50;;;;;;;18.13;52.87;97924.77;104637;1274;61208;-50
2023/11/22 02:33:11;;;;;;;2.70;2.50;;;;;;;18.13;52.82;97924.01;104539;1269;61395;-51
2023/11/22 02:35:38;;;;;;;3.10;2.20;;;;;;;18.12;52.74;97924.30;104572;1273;74823;-51
2023/11/22 02:38:05;;;;;;;2.50;2.30;;;;;;;18.12;52.79;97928.70;104711;1272;65982;-51
2023/11/22 02:40:32;;;;;;;2.60;2.10;;;;;;;18.12;52.78;97930.26;104615;1268;72432;-50
2023/11/22 02:43:00;;;;;;;2.40;2.20;;;;;;;18.11;52.80;97935.81;104391;1273;61319;-51
2023/11/22 02:45:28;;;;;;;2.40;2.20;;;;;;;18.12;52.80;97936.90;104541;1268;61714;-51
2023/11/22 02:47:54;;;;;;;2.50;2.30;;;;;;;18.11;52.80;97941.06;104459;1268;74433;-51
2023/11/22 02:50:21;;;;;;;2.50;2.10;;;;;;;18.11;52.75;97945.56;104420;1272;64135;-50
2023/11/22 02:52:48;;;;;;;2.60;2.30;;;;;;;18.11;52.73;97952.37;104396;1268;72440;-51
2023/11/22 02:55:14;;;;;;;2.50;2.30;;;;;;;18.11;52.76;97949.52;104407;1273;61288;-49
2023/11/22 02:57:41;;;;;;;2.50;2.30;;;;;;;18.11;52.73;97955.63;104544;1268;61363;-51
2023/11/22 03:00:09;;;;;;;2.20;2.00;;;;;;;18.11;52.72;97963.05;104505;1270;74307;-51
2023/11/22 03:02:37;;;;;;;2.80;2.10;;;;;;;18.11;52.76;97968.86;104631;1268;66085;-50
2023/11/22 03:05:05;;;;;;;2.30;1.90;;;;;;;18.10;52.79;97975.66;104480;1268;72673;-49
2023/11/22 03:07:32;;;;;;;2.60;2.10;;;;;;;18.10;52.78;97983.26;104541;1268;61267;-50
2023/11/22 03:10:00;;;;;;;2.30;2.10;;;;;;;18.10;52.76;97986.50;104494;1268;61599;-49
2023/11/22 03:12:27;;;;;;;2.60;2.40;;;;;;;18.10;52.80;97992.63;104395;1269;74484;-49
2023/11/22 03:15:00;;;;;;;3.10;2.00;;;;;;;18.10;52.73;97992.85;104453;1273;66231;-49
2023/11/22 03:17:28;;;;;;;2.40;2.20;;;;;;;18.10;52.76;97997.02;104512;1268;72681;-49
2023/11/22 03:19:58;;;;;;;2.30;2.10;;;;;;;18.10;52.72;97999.36;104546;1273;61265;-49
2023/11/22 03:22:25;;;;;;;2.40;2.20;;;;;;;18.10;52.72;98002.28;104425;1268;61303;-49
2023/11/22 03:24:55;;;;;;;3.00;2.30;;;;;;;18.10;52.73;98004.20;104487;1269;74416;-49
2023/11/22 03:27:23;;;;;;;2.40;2.20;;;;;;;18.09;52.80;98010.77;104435;1274;66274;-49
2023/11/22 03:29:49;;;;;;;2.40;2.20;;;;;;;18.09;52.70;98012.57;104632;1268;72432;-49
2023/11/22 03:32:17;;;;;;;2.30;2.10;;;;;;;18.09;52.73;98015.35;104474;1273;61266;-51
2023/11/22 03:34:44;;;;;;;2.10;1.90;;;;;;;18.09;52.74;98015.59;104590;1268;61371;-49
2023/11/22 03:37:11;;;;;;;2.90;2.40;;;;;;;18.09;52.74;98021.92;104502;1273;74402;-49
2023/11/22 03:39:38;;;;;;;2.30;2.00;;;;;;;18.08;52.66;98024.55;104706;1274;66035;-49
2023/11/22 03:42:06;;;;;;;2.50;2.30;;;;;;;18.09;52.70;98028.50;104686;1268;72637;-49
2023/11/22 03:44:33;;;;;;;2.90;2.00;;;;;;;18.08;52.74;98030.35;104621;1273;61262;-49
2023/11/22 03:46:59;;;;;;;2.50;2.30;;;;;;;18.08;52.73;98035.61;104707;1268;61360;-50
2023/11/22 03:49:27;;;;;;;2.50;2.30;;;;;;;18.08;52.70;98036.47;104590;1268;75458;-51
2023/11/22 03:51:54;;;;;;;3.30;2.10;;;;;;;18.08;52.69;98040.26;104410;1276;65975;-50
2023/11/22 03:54:20;;;;;;;2.50;2.00;;;;;;;18.08;52.66;98041.19;104651;1268;72692;-50
2023/11/22 03:56:47;;;;;;;2.40;2.20;;;;;;;18.08;52.66;98039.34;104560;1268;61265;-49
2023/11/22 03:59:13;;;;;;;2.60;2.30;;;;;;;18.08;52.73;98036.38;104577;1268;61319;-49
2023/11/22 04:01:40;;;;;;;2.40;2.20;;;;;;;18.08;52.66;98032.89;104688;1268;74617;-49
2023/11/22 04:04:09;;;;;;;2.30;2.10;;;;;;;18.08;52.65;98035.73;104541;1272;64097;-50
2023/11/22 04:06:36;;;;;;;3.00;2.10;;;;;;;18.07;52.64;98037.65;104551;1268;73821;-49
2023/11/22 04:09:03;;;;;;;2.20;2.00;;;;;;;18.07;52.64;98040.20;104423;1274;61972;-49
2023/11/22 04:11:30;;;;;;;2.20;2.00;;;;;;;18.07;52.66;98046.70;104747;1268;61376;-49
2023/11/22 04:13:57;;;;;;;2.40;2.20;;;;;;;18.07;52.75;98046.71;105192;1270;74938;-49
2023/11/22 04:16:24;;;;;;;2.40;2.20;;;;;;;18.07;52.63;98052.89;104704;1274;66107;-49
2023/11/22 04:18:51;;;;;;;2.50;2.20;;;;;;;18.07;52.71;98057.39;104485;1268;72507;-49
2023/11/22 04:21:18;;;;;;;2.20;2.00;;;;;;;18.06;52.67;98061.48;104485;1274;61269;-49
2023/11/22 04:23:45;;;;;;;2.50;2.20;;;;;;;18.06;52.62;98072.02;104442;1268;61270;-49
2023/11/22 04:26:12;;;;;;;2.30;2.10;;;;;;;18.06;52.75;98070.77;104419;1273;74609;-49
2023/11/22 04:28:38;;;;;;;2.60;2.30;;;;;;;18.06;52.69;98077.81;104414;1274;65882;-49
2023/11/22 04:31:05;;;;;;;2.50;2.30;;;;;;;18.06;52.71;98085.72;104407;1270;61341;-49
2023/11/22 04:33:31;;;;;;;2.90;2.20;;;;;;;18.06;52.66;98086.94;104368;1274;61357;-50
2023/11/22 04:35:58;;;;;;;2.30;2.10;;;;;;;18.06;52.64;98091.22;104571;1268;61383;-48
2023/11/22 04:38:25;;;;;;;2.50;2.20;;;;;;;18.06;52.66;98092.77;104583;1274;74631;-49
2023/11/22 04:40:52;;;;;;;2.00;1.90;;;;;;;18.06;52.61;98100.80;104517;1268;66137;-51
2023/11/22 04:43:18;;;;;;;2.30;2.10;;;;;;;18.06;52.65;98104.84;104510;1268;73493;-50
2023/11/22 04:45:45;;;;;;;2.30;2.10;;;;;;;18.06;52.61;98101.05;104699;1273;61263;-49
2023/11/22 04:48:14;;;;;;;2.40;2.20;;;;;;;18.06;52.60;98104.92;104641;1268;61362;-49
2023/11/22 04:50:42;;;;;;;2.70;2.10;;;;;;;18.06;52.65;98107.80;104550;1270;74484;-50
2023/11/22 04:53:10;;;;;;;2.30;2.10;;;;;;;18.06;52.64;98112.27;104671;1271;64073;-49
2023/11/22 04:55:37;;;;;;;2.30;2.10;;;;;;;18.06;52.62;98109.64;104535;1268;72587;-50
2023/11/22 04:58:04;;;;;;;1.90;1.80;;;;;;;18.06;52.55;98113.27;104641;1272;61270;-50
2023/11/22 05:00:30;;;;;;;2.50;2.20;;;;;;;18.07;52.54;98114.38;104643;1268;61306;-49
2023/11/22 05:02:57;;;;;;;2.20;2.00;;;;;;;18.07;52.56;98116.70;104463;1273;74542;-50
2023/11/22 05:05:24;;;;;;;2.20;2.00;;;;;;;18.07;52.55;98125.85;104492;1272;66247;-50
2023/11/22 05:07:51;;;;;;;2.40;1.90;;;;;;;18.07;52.50;98129.04;104457;1274;72516;-49
2023/11/22 05:10:17;;;;;;;2.20;2.00;;;;;;;18.07;52.57;98135.30;104613;1271;61214;-51
2023/11/22 05:12:44;;;;;;;2.10;1.90;;;;;;;18.07;52.59;98139.39;104587;1268;61677;-49
2023/11/22 05:15:11;;;;;;;2.20;2.00;;;;;;;18.07;52.54;98144.75;104581;1273;74616;-50
2023/11/22 05:17:38;;;;;;;2.10;1.90;;;;;;;18.08;52.52;98144.46;104712;1274;65987;-50
2023/11/22 05:20:09;;;;;;;1.90;1.80;;;;;;;18.08;52.49;98146.95;104664;1274;72669;-50
2023/11/22 05:22:37;;;;;;;2.80;2.20;;;;;;;18.08;52.55;98146.11;104691;1269;61322;-50
2023/11/22 05:25:04;;;;;;;2.00;1.80;;;;;;;18.09;52.55;98155.88;104634;1268;61446;-50
2023/11/22 05:27:32;;;;;;;2.10;2.00;;;;;;;18.08;52.55;98171.29;104599;1268;73237;-51
2023/11/22 05:30:00;;;;;;;2.10;1.90;;;;;;;18.09;52.53;98182.23;104622;1273;65510;-49
2023/11/22 05:32:28;;;;;;;2.10;1.90;;;;;;;18.09;52.50;98185.32;104590;1273;72880;-50
2023/11/22 05:34:55;;;;;;;1.80;1.70;;;;;;;18.09;52.56;98190.52;104613;1269;61289;-49
2023/11/22 05:37:21;;;;;;;2.80;1.90;;;;;;;18.09;52.50;98196.25;104554;1269;61291;-48
2023/11/22 05:39:50;;;;;;;2.30;2.10;;;;;;;18.09;52.46;98197.25;104540;1269;73601;-49
2023/11/22 05:42:17;;;;;;;2.30;2.00;;;;;;;18.10;52.52;98201.61;104521;1274;64914;-50
2023/11/22 05:44:44;;;;;;;2.00;1.80;;;;;;;18.10;52.45;98198.05;104601;1268;72969;-51
2023/11/22 05:47:12;;;;;;;2.00;1.70;;;;;;;18.11;52.54;98203.11;104519;1272;61267;-50
2023/11/22 05:49:39;;;;;;;2.20;2.00;;;;;;;18.11;52.49;98216.28;104546;1268;61287;-50
2023/11/22 05:52:06;;;;;;;3.30;2.00;;;;;;;18.11;52.53;98216.38;104551;1268;61447;-50
2023/11/22 05:54:32;;;;;;;2.00;1.80;;;;;;;18.11;52.46;98215.36;104540;1271;66097;-49
2023/11/22 05:56:59;;;;;;;2.30;2.10;;;;;;;18.12;52.47;98213.91;104596;1273;72739;-50
2023/11/22 05:59:26;;;;;;;2.30;2.10;;;;;;;18.11;52.48;98218.78;104709;1273;61285;-49
2023/11/22 06:01:53;;;;;;;2.10;1.90;;;;;;;18.12;52.44;98229.88;104483;1271;61350;-49
2023/11/22 06:04:19;;;;;;;2.20;1.80;;;;;;;18.12;52.44;98239.80;104447;1274;75272;-49
2023/11/22 06:06:46;;;;;;;2.40;1.90;;;;;;;18.13;52.47;98249.58;104422;1273;65970;-50
2023/11/22 06:09:14;;;;;;;2.20;2.00;;;;;;;18.13;52.46;98252.39;104510;1268;72961;-49
2023/11/22 06:11:41;;;;;;;1.80;1.70;;;;;;;18.13;52.46;98252.39;104496;1272;61372;-49
2023/11/22 06:14:08;;;;;;;2.70;2.00;;;;;;;18.13;52.47;98258.89;104751;1269;61894;-49
2023/11/22 06:16:36;;;;;;;1.90;1.80;;;;;;;18.13;52.50;98260.91;104280;1273;74917;-48
2023/11/22 06:19:07;;;;;;;2.40;2.20;;;;;;;18.14;52.47;98270.39;104583;1276;64973;-49
2023/11/22 06:21:36;;;;;;;3.10;2.40;;;;;;;18.14;52.25;98271.38;103726;1276;72944;-49
2023/11/22 06:24:05;;;;;;;2.70;2.50;;;;;;;18.13;52.06;98276.56;104893;1273;61220;-48
2023/11/22 06:26:32;;;;;;;2.80;2.40;;;;;;;18.13;52.04;98278.86;108113;1268;59329;-49
2023/11/22 06:28:59;;;;;;;3.10;2.50;;;;;;;18.13;52.03;98286.92;106299;1270;75296;-49
2023/11/22 06:31:25;;;;;;;2.80;2.50;;;;;;;18.14;52.02;98294.77;104396;1273;66505;-48
2023/11/22 06:33:52;;;;;;;3.00;2.40;;;;;;;18.14;52.05;98293.70;104251;1268;72606;-47
2023/11/22 06:36:19;;;;;;;2.80;2.30;;;;;;;18.15;52.00;98290.55;104262;1273;61894;-48
2023/11/22 06:38:46;;;;;;;2.90;2.40;;;;;;;18.15;52.07;98291.89;104314;1273;61271;-48
2023/11/22 06:41:13;;;;;;;2.40;2.20;;;;;;;18.15;52.01;98291.63;104331;1268;73483;-49
2023/11/22 06:43:40;;;;;;;2.90;2.50;;;;;;;18.15;52.02;98295.05;104460;1272;65103;-50
2023/11/22 06:46:06;;;;;;;2.60;2.40;;;;;;;18.15;52.05;98303.11;104229;1277;72654;-50
2023/11/22 06:48:33;;;;;;;6.80;2.40;;;;;;;18.15;52.23;98310.48;104725;1274;61154;-51
2023/11/22 06:51:01;;;;;;;3.20;2.30;;;;;;;18.17;52.35;98317.13;104498;1268;61249;-55
2023/11/22 06:53:27;;;;;;;2.90;2.60;;;;;;;18.19;52.44;98324.93;104341;1274;74514;-51
2023/11/22 06:55:54;;;;;;;2.60;2.40;;;;;;;18.21;52.57;98327.89;104350;1273;66251;-47
2023/11/22 06:58:21;;;;;;;5.50;2.60;;;;;;;18.23;52.73;98334.38;104191;1273;72842;-50
2023/11/22 07:00:48;;;;;;;2.70;2.30;;;;;;;18.24;52.96;98341.40;104624;1271;61374;-49
2023/11/22 07:03:15;;;;;;;2.80;2.10;;;;;;;18.27;53.11;98343.73;104376;1267;61372;-48
2023/11/22 07:05:43;;;;;;;3.00;2.50;;;;;;;18.28;53.25;98348.58;104407;1274;74528;-49
2023/11/22 07:08:10;;;;;;;3.00;2.40;;;;;;;18.30;53.56;98351.91;104337;1274;65133;-49
2023/11/22 07:10:37;;;;;;;2.70;2.40;;;;;;;18.32;53.73;98353.91;104280;1273;72437;-49
2023/11/22 07:13:05;;;;;;;2.50;2.20;;;;;;;18.34;53.89;98359.73;104228;1274;61316;-50
2023/11/22 07:15:31;;;;;;;2.60;1.90;;;;;;;18.36;53.96;98364.84;105860;1268;61386;-50
2023/11/22 07:17:59;;;;;;;3.50;2.60;;;;;;;18.38;53.87;98373.29;104242;1281;74565;-50
2023/11/22 07:20:27;;;;;;;3.00;2.50;;;;;;;18.38;53.66;98378.33;104601;1274;66904;-48
2023/11/22 07:22:57;;;;;;;2.70;2.30;;;;;;;18.39;53.35;98380.69;104377;1269;73547;-49
2023/11/22 07:25:27;;;;;;;3.10;2.80;;;;;;;18.38;53.13;98384.02;104329;1268;61927;-56
2023/11/22 07:27:53;;;;;;;3.30;2.60;;;;;;;18.39;53.00;98387.83;103996;1274;61403;-49
2023/11/22 07:30:22;;;;;;;2.90;2.40;;;;;;;18.39;52.85;98389.60;108244;1268;74484;-54
2023/11/22 07:32:52;;;;;;;3.70;2.30;;;;;;;18.39;52.70;98394.33;108253;1268;65227;-49
2023/11/22 07:35:19;;;;;;;3.00;2.70;;;;;;;18.40;52.42;98396.52;108397;1268;72641;-50
2023/11/22 07:37:47;;;;;;;2.80;2.40;;;;;;;18.40;52.36;98396.46;108073;1268;60043;-50
2023/11/22 07:40:14;;;;;;;3.20;2.80;;;;;;;18.41;52.19;98399.14;108275;1270;60367;-50
2023/11/22 07:42:41;;;;;;;2.90;2.40;;;;;;;18.41;52.13;98406.45;106407;1272;73413;-50
2023/11/22 07:45:11;;;;;;;3.10;2.60;;;;;;;18.43;52.15;98404.06;104231;1273;64413;-50
2023/11/22 07:47:41;;;;;;;3.80;2.40;;;;;;;18.44;52.10;98406.14;104546;1273;71635;-50
2023/11/22 07:50:09;;;;;;;3.40;2.60;;;;;;;18.44;52.15;98407.14;104564;1274;61438;-50
2023/11/22 07:52:37;;;;;;;2.60;2.20;;;;;;;18.44;52.11;98411.11;104628;1268;61333;-52
2023/11/22 07:55:07;;;;;;;3.10;2.30;;;;;;;18.45;52.05;98413.09;104209;1273;75106;-50
2023/11/22 07:57:34;;;;;;;2.60;2.10;;;;;;;18.45;51.99;98410.52;104555;1268;64112;-51
2023/11/22 08:00:08;;;;;;;4.10;2.50;;;;;;;18.46;51.96;98412.33;104455;1268;72530;-50
2023/11/22 08:03:18;;;;;;;2.70;2.10;;;;;;;18.46;51.95;98413.56;104163;1276;61704;-49
2023/11/22 08:05:48;;;;;;;2.50;2.30;;;;;;;18.44;51.98;98415.29;105135;1268;61246;-50
2023/11/22 08:08:15;;;;;;;2.20;2.00;;;;;;;18.44;51.99;98418.86;104720;1272;75495;-50
2023/11/22 08:10:43;;;;;;;2.60;2.10;;;;;;;18.45;51.98;98419.89;104722;1272;64408;-50
2023/11/22 08:13:13;;;;;;;2.40;2.20;;;;;;;18.44;51.90;98419.25;104267;1274;72670;-50
2023/11/22 08:15:39;;;;;;;3.70;2.40;;;;;;;18.44;51.98;98417.15;104337;1274;61426;-48
2023/11/22 08:18:07;;;;;;;3.50;2.40;;;;;;;18.44;51.93;98420.31;104580;1273;61387;-52
2023/11/22 08:20:34;;;;;;;4.20;2.40;;;;;;;18.43;51.89;98426.49;104154;1269;74472;-50
2023/11/22 08:23:01;;;;;;;5.70;2.70;;;;;;;18.43;51.97;98434.45;104403;1272;65453;-50
2023/11/22 08:25:28;;;;;;;5.30;2.80;;;;;;;18.42;52.10;98439.70;104257;1268;72453;-39
2023/11/22 08:27:54;;;;;;;4.20;2.80;;;;;;;18.43;52.29;98439.04;104190;1274;61278;-39
2023/11/22 08:30:21;;;;;;;4.60;2.40;;;;;;;18.43;52.44;98443.69;104602;1268;61259;-40
2023/11/22 08:32:53;;;;;;;4.30;2.40;;;;;;;18.44;52.53;98440.31;104177;1269;74491;-40
2023/11/22 08:35:23;;;;;;;5.90;2.50;;;;;;;18.44;52.52;98446.27;104504;1268;66078;-40
2023/11/22 08:37:50;;;;;;;2.80;2.50;;;;;;;18.43;52.57;98447.48;104201;1274;72472;-40
2023/11/22 08:40:20;;;;;;;3.70;2.30;;;;;;;18.43;52.50;98453.46;104555;1273;61389;-40
2023/11/22 08:42:47;;;;;;;3.70;2.40;;;;;;;18.44;52.44;98451.77;104755;1271;61371;-39
2023/11/22 08:45:14;;;;;;;3.60;2.20;;;;;;;18.42;52.38;98454.34;104616;1273;75155;-40
2023/11/22 08:47:41;;;;;;;3.70;2.60;;;;;;;18.42;52.30;98457.83;104233;1273;65514;-40
2023/11/22 08:50:10;;;;;;;5.60;2.70;;;;;;;18.42;52.22;98456.11;104259;1273;73086;-38
2023/11/22 08:52:41;;;;;;;5.40;2.40;;;;;;;18.41;52.13;98455.15;104299;1271;61326;-40
2023/11/22 08:55:08;;;;;;;3.10;2.70;;;;;;;18.41;52.26;98454.08;104211;1272;61297;-39
2023/11/22 08:57:37;;;;;;;2.70;2.30;;;;;;;18.41;52.26;98454.09;104174;1269;74380;-39
2023/11/22 09:00:08;;;;;;;4.30;2.40;;;;;;;18.41;52.34;98449.35;104455;1268;66198;-40
2023/11/22 09:02:36;;;;;;;4.10;2.50;;;;;;;18.42;52.32;98460.45;104348;1272;72687;-38
2023/11/22 09:05:06;;;;;;;2.70;2.40;;;;;;;18.41;52.30;98462.21;104472;1272;61198;-40
2023/11/22 09:07:37;;;;;;;5.70;2.70;;;;;;;18.42;52.29;98465.77;104383;1268;61309;-40
2023/11/22 09:10:09;;;;;;;4.50;2.60;;;;;;;18.41;52.25;98471.59;104682;1273;75744;-39
2023/11/22 09:12:39;;;;;;;3.50;2.60;;;;;;;18.41;52.22;98470.18;104444;1274;66272;-41
2023/11/22 09:15:14;;;;;;;4.70;2.70;;;;;;;18.41;52.06;98470.10;104351;1268;72366;-41
2023/11/22 09:17:46;;;;;;;4.30;2.60;;;;;;;18.40;51.96;98466.10;104337;1268;61320;-40
2023/11/22 09:20:13;;;;;;;3.00;2.30;;;;;;;18.40;51.97;98468.83;104596;1269;61982;-42
2023/11/22 09:22:50;;;;;;;4.10;2.70;;;;;;;18.39;51.96;98470.97;104648;1273;75879;-39
2023/11/22 09:25:20;;;;;;;5.40;2.40;;;;;;;18.39;51.93;98479.80;104586;1268;66127;-40
2023/11/22 09:27:51;;;;;;;4.90;2.50;;;;;;;18.39;51.93;98487.93;104441;1273;72405;-40
2023/11/22 09:30:34;;;;;;;3.60;2.30;;;;;;;18.39;51.95;98485.83;104374;1273;61266;-39
2023/11/22 09:33:02;;;;;;;9.90;2.50;;;;;;;18.39;51.97;98479.33;104252;1270;249412;-38
2023/11/22 09:35:31;;;;;;;2.40;2.20;;;;;;;18.39;52.04;98483.36;104519;1273;73519;-41
2023/11/22 09:37:59;;;;;;;3.70;2.30;;;;;;;18.39;52.16;98484.91;104359;1269;66886;-41
2023/11/22 09:40:27;;;;;;;2.50;2.20;;;;;;;18.39;52.33;98486.38;104675;1268;73182;-40
2023/11/22 09:42:55;;;;;;;5.10;2.40;;;;;;;18.40;52.55;98490.13;104686;1274;61979;-40
2023/11/22 09:45:22;;;;;;;3.30;2.60;;;;;;;18.41;52.64;98496.67;104386;1269;61329;-37
2023/11/22 09:47:49;;;;;;;3.10;2.20;;;;;;;18.41;52.78;98498.71;104055;1275;74579;-39
2023/11/22 09:50:22;;;;;;;3.40;2.60;;;;;;;18.42;52.81;98496.55;105905;1273;67101;-39
2023/11/22 09:52:53;;;;;;;4.40;2.70;;;;;;;18.43;52.77;98496.91;106791;1273;74024;-40
2023/11/22 09:55:22;;;;;;;3.60;2.70;;;;;;;18.43;52.71;98500.33;104604;1276;61358;-40
2023/11/22 09:57:49;;;;;;;6.10;2.70;;;;;;;18.44;52.70;98500.52;104338;1273;61260;-39
2023/11/22 10:00:18;;;;;;;6.90;2.50;;;;;;;18.46;52.65;98510.50;104614;1273;74496;-38
2023/11/22 10:02:45;;;;;;;4.70;2.40;;;;;;;18.45;52.74;98505.14;104437;1276;65485;-39
2023/11/22 10:05:12;;;;;;;4.80;2.70;;;;;;;18.46;52.74;98504.96;104722;1272;73039;-39
2023/11/22 10:07:39;;;;;;;2.50;2.20;;;;;;;18.46;52.63;98506.28;104450;1281;61618;-41
2023/11/22 10:10:07;;;;;;;5.30;2.20;;;;;;;18.47;52.70;98509.55;104495;1268;61603;-40
2023/11/22 10:12:36;;;;;;;4.00;2.20;;;;;;;18.46;52.78;98505.67;104407;1272;75590;-38
2023/11/22 10:15:13;;;;;;;4.80;2.30;;;;;;;18.47;52.78;98503.60;104282;1276;66419;-40
2023/11/22 10:17:40;;;;;;;2.50;2.10;;;;;;;18.46;52.89;98504.27;104728;1274;73485;-40
2023/11/22 10:20:11;;;;;;;5.40;2.40;;;;;;;18.47;52.88;98498.31;104520;1272;61271;-40
2023/11/22 10:22:44;;;;;;;5.10;2.30;;;;;;;18.47;52.96;98504.92;104594;1272;61685;-40
2023/11/22 10:25:12;;;;;;;2.70;2.30;;;;;;;18.47;52.94;98516.09;104496;1269;74608;-39
2023/11/22 10:27:40;;;;;;;2.70;2.40;;;;;;;18.48;52.98;98527.05;104502;1272;66427;-41
2023/11/22 10:30:09;;;;;;;3.20;2.20;;;;;;;18.48;53.10;98527.04;104515;1273;72711;-40
2023/11/22 10:32:39;;;;;;;4.50;2.40;;;;;;;18.48;53.07;98534.57;104558;1268;61303;-44
2023/11/22 10:35:07;;;;;;;5.10;2.40;;;;;;;18.48;53.11;98538.97;104381;1274;61316;-39
2023/11/22 10:37:35;;;;;;;2.40;2.20;;;;;;;18.48;53.01;98531.38;104593;1273;75580;-40
2023/11/22 10:40:05;;;;;;;4.00;2.50;;;;;;;18.48;53.04;98534.57;104446;1273;66279;-40
2023/11/22 10:42:33;;;;;;;3.10;2.00;;;;;;;18.49;53.05;98536.29;104501;1274;72511;-39
2023/11/22 10:45:02;;;;;;;5.10;2.30;;;;;;;18.49;52.99;98536.60;104478;1273;61949;-40
2023/11/22 10:47:29;;;;;;;3.70;2.50;;;;;;;18.49;52.94;98535.74;104290;1270;61273;-40
2023/11/22 10:49:56;;;;;;;3.00;2.10;;;;;;;18.49;52.96;98539.02;104587;1274;75324;-40
2023/11/22 10:52:25;;;;;;;3.30;2.20;;;;;;;18.49;53.01;98536.62;104487;1273;65866;-40
2023/11/22 10:54:52;;;;;;;3.30;2.00;;;;;;;18.50;53.32;98539.98;104871;1270;73493;-41
2023/11/22 10:57:19;;;;;;;2.90;2.20;;;;;;;18.51;53.89;98539.33;104330;1277;61315;-38
2023/11/22 10:59:54;;;;;;;4.90;2.30;;;;;;;18.53;54.14;98537.86;104889;1273;61169;-40
2023/11/22 11:02:22;;;;;;;3.90;2.10;;;;;;;18.56;54.42;98546.33;104250;1271;75317;-37
2023/11/22 11:04:53;;;;;;;5.40;2.70;;;;;;;18.59;54.55;98552.05;104500;1281;66967;-45
2023/11/22 11:07:22;;;;;;;5.70;2.60;;;;;;;18.65;54.65;98554.45;104339;1271;73677;-48
2023/11/22 11:09:50;;;;;;;6.00;2.30;;;;;;;18.71;54.97;98547.91;104476;1270;61384;-47
2023/11/22 11:12:18;;;;;;;4.20;2.40;;;;;;;18.77;55.25;98551.73;106016;1272;61541;-47
2023/11/22 11:14:46;;;;;;;3.00;2.40;;;;;;;18.83;55.36;98550.48;104456;1272;74614;-48
2023/11/22 11:17:14;;;;;;;5.90;2.30;;;;;;;18.89;55.35;98554.59;104468;1274;66912;-51
2023/11/22 11:19:41;;;;;;;3.30;2.40;;;;;;;18.93;55.38;98558.88;104721;1273;73318;-47
2023/11/22 11:22:10;;;;;;;2.50;2.10;;;;;;;18.98;55.34;98560.60;104584;1275;61287;-49
2023/11/22 11:24:40;;;;;;;3.20;2.10;;;;;;;19.01;55.19;98558.95;105526;1270;60371;-50
2023/11/22 11:27:08;;;;;;;2.80;2.30;;;;;;;19.05;55.19;98566.77;104417;1268;74529;-51